Map

Track Data

SID SEASON NUMBER BASIN SUBBASIN NAME ISO_TIME NATURE LAT LON WMO_WIND WMO_PRES WMO_AGENCY TRACK_TYPE DIST2LAND LANDFALL IFLAG USA_AGENCY USA_ATCF_ID USA_LAT USA_LON USA_RECORD USA_STATUS USA_WIND USA_PRES USA_SSHS USA_R34_NE USA_R34_SE USA_R34_SW USA_R34_NW USA_R50_NE USA_R50_SE USA_R50_SW USA_R50_NW USA_R64_NE USA_R64_SE USA_R64_SW USA_R64_NW USA_POCI USA_ROCI USA_RMW USA_EYE TOKYO_LAT TOKYO_LON TOKYO_GRADE TOKYO_WIND TOKYO_PRES TOKYO_R50_DIR TOKYO_R50_LONG TOKYO_R50_SHORT TOKYO_R30_DIR TOKYO_R30_LONG TOKYO_R30_SHORT TOKYO_LAND CMA_LAT CMA_LON CMA_CAT CMA_WIND CMA_PRES HKO_LAT HKO_LON HKO_CAT HKO_WIND HKO_PRES NEWDELHI_LAT NEWDELHI_LON NEWDELHI_GRADE NEWDELHI_WIND NEWDELHI_PRES NEWDELHI_CI NEWDELHI_DP NEWDELHI_POCI REUNION_LAT REUNION_LON REUNION_TYPE REUNION_WIND REUNION_PRES REUNION_TNUM REUNION_CI REUNION_RMW REUNION_R34_NE REUNION_R34_SE REUNION_R34_SW REUNION_R34_NW REUNION_R50_NE REUNION_R50_SE REUNION_R50_SW REUNION_R50_NW REUNION_R64_NE REUNION_R64_SE REUNION_R64_SW REUNION_R64_NW BOM_LAT BOM_LON BOM_TYPE BOM_WIND BOM_PRES BOM_TNUM BOM_CI BOM_RMW BOM_R34_NE BOM_R34_SE BOM_R34_SW BOM_R34_NW BOM_R50_NE BOM_R50_SE BOM_R50_SW BOM_R50_NW BOM_R64_NE BOM_R64_SE BOM_R64_SW BOM_R64_NW BOM_ROCI BOM_POCI BOM_EYE BOM_POS_METHOD BOM_PRES_METHOD NADI_LAT NADI_LON NADI_CAT NADI_WIND NADI_PRES WELLINGTON_LAT WELLINGTON_LON WELLINGTON_WIND WELLINGTON_PRES DS824_LAT DS824_LON DS824_STAGE DS824_WIND DS824_PRES TD9636_LAT TD9636_LON TD9636_STAGE TD9636_WIND TD9636_PRES TD9635_LAT TD9635_LON TD9635_WIND TD9635_PRES TD9635_ROCI NEUMANN_LAT NEUMANN_LON NEUMANN_CLASS NEUMANN_WIND NEUMANN_PRES MLC_LAT MLC_LON MLC_CLASS MLC_WIND MLC_PRES USA_GUST BOM_GUST BOM_GUST_PER REUNION_GUST REUNION_GUST_PER USA_SEAHGT USA_SEARAD_NE USA_SEARAD_SE USA_SEARAD_SW USA_SEARAD_NW STORM_SPEED STORM_DIR
1946174N19120 1946 33 WP MM ELINOR 1946-06-23 00:00:00 TS 18.7000 120.000 main 71 71 O________OOO__ jtwc_wp WP041946 18.7000 120.000 40 0 18.7000 120.000 TC 40 18.7000 120.000 2 40 18.7000 120.000 40 997 60 1 93
1946174N19120 1946 33 WP MM ELINOR 1946-06-23 03:00:00 TS 18.6980 120.049 main 71 62 P________PPP__ WP041946 18.6875 120.050 45 0 18.6875 120.050 TC 45 18.7297 120.045 2 42 18.6875 120.050 45 993 90 1 81
1946174N19120 1946 33 WP MM ELINOR 1946-06-23 06:00:00 TS 18.7144 120.098 main 62 62 O________OPO__ jtwc_wp WP041946 18.7000 120.100 50 0 18.7000 120.100 TC 50 18.7575 120.092 2 45 18.7000 120.100 50 990 120 1 58
1946174N19120 1946 33 WP MM ELINOR 1946-06-23 09:00:00 TS 18.7579 120.148 main 69 61 P________PPP__ WP041946 18.7500 120.150 50 0 18.7500 120.150 TC 50 18.7816 120.143 2 47 18.7500 120.150 50 988 150 1 49
1946174N19120 1946 33 WP MM ELINOR 1946-06-23 12:00:00 TS 18.8000 120.200 main 61 54 O________OOO__ jtwc_wp WP041946 18.8000 120.200 50 0 18.8000 120.200 TC 50 18.8000 120.200 2 50 18.8000 120.200 50 986 180 1 64
1946174N19120 1946 33 WP MM ELINOR 1946-06-23 15:00:00 TS 18.8032 120.253 main 54 54 P________PPP__ WP041946 18.8000 120.250 50 0 18.8000 120.250 TC 50 18.8128 120.262 2 48 18.8000 120.250 50 986 150 1 86
1946174N19120 1946 33 WP MM ELINOR 1946-06-23 18:00:00 TS 18.8069 120.306 main 54 47 O________OPO__ jtwc_wp WP041946 18.8000 120.300 50 0 18.8000 120.300 TC 50 18.8275 120.322 2 47 18.8000 120.300 50 987 120 1 68
1946174N19120 1946 33 WP MM ELINOR 1946-06-23 21:00:00 TS 18.8452 120.361 main 47 47 P________PPP__ WP041946 18.8425 120.357 47 0 18.8425 120.357 TC 47 18.8534 120.372 2 46 18.8425 120.357 47 988 90 1 45
1946174N19120 1946 33 WP MM ELINOR 1946-06-24 00:00:00 TS 18.9000 120.400 main 53 53 O________OOO__ jtwc_wp WP041946 18.9000 120.400 45 0 18.9000 120.400 TC 45 18.9000 120.400 2 45 18.9000 120.400 45 989 60 1 28
1946174N19120 1946 33 WP MM ELINOR 1946-06-24 03:00:00 TS 18.9438 120.413 main 53 53 P________PPP__ WP041946 18.9350 120.415 45 0 18.9350 120.415 TC 45 18.9703 120.409 2 45 18.9350 120.415 45 989 60 1 347
1946174N19120 1946 33 WP MM ELINOR 1946-06-24 06:00:00 TS 19.0156 120.399 main 61 61 O________OPO__ jtwc_wp WP041946 19.0000 120.400 45 0 19.0000 120.400 TC 45 19.0625 120.395 2 45 19.0000 120.400 45 990 60 2 348
1946174N19120 1946 33 WP MM ELINOR 1946-06-24 09:00:00 TS 19.1446 120.369 main 70 70 P________PPP__ WP041946 19.1350 120.372 45 0 19.1350 120.372 TC 45 19.1734 120.359 2 45 19.1350 120.372 45 991 90 3 341
1946174N19120 1946 33 WP MM ELINOR 1946-06-24 12:00:00 TS 19.3000 120.300 main 94 94 O________OOO__ jtwc_wp WP041946 19.3000 120.300 45 0 19.3000 120.300 TC 45 19.3000 120.300 2 45 19.3000 120.300 45 992 120 4 328
1946174N19120 1946 33 WP MM ELINOR 1946-06-24 15:00:00 TS 19.4464 120.168 main 109 109 P________PPP__ WP041946 19.4500 120.150 42 0 19.4500 120.150 TC 42 19.4356 120.222 2 42 19.4500 120.150 42 993 90 4 319
1946174N19120 1946 33 WP MM ELINOR 1946-06-24 18:00:00 TS 19.5963 120.031 main 139 139 O________OPO__ jtwc_wp WP041946 19.6000 120.000 40 0 19.6000 120.000 TC 40 19.5850 120.123 2 40 19.6000 120.000 40 994 60 4 327
1946174N19120 1946 33 WP MM ELINOR 1946-06-24 21:00:00 TS 19.7480 119.960 main 149 149 P________PPP__ WP041946 19.7500 119.942 37 0 19.7500 119.942 TC 37 19.7419 120.012 2 37 19.7500 119.942 37 995 90 3 338
1946174N19120 1946 33 WP MM ELINOR 1946-06-25 00:00:00 TS 19.9000 119.900 main 173 173 O________OOO__ jtwc_wp WP041946 19.9000 119.900 35 0 19.9000 119.900 TC 35 19.9000 119.900 2 35 19.9000 119.900 35 997 120 3 334
1946174N19120 1946 33 WP MM ELINOR 1946-06-25 03:00:00 TS 20.0511 119.804 main 197 197 P________PPP__ WP041946 20.0500 119.808 35 0 20.0500 119.808 TC 35 20.0544 119.793 2 33 20.0500 119.808 35 998 120 4 328
1946174N19120 1946 33 WP MM ELINOR 1946-06-25 06:00:00 TS 20.2013 119.698 main 212 206 O________OPO__ jtwc_wp WP041946 20.2000 119.700 35 0 20.2000 119.700 TC 35 20.2050 119.693 2 32 20.2000 119.700 35 999 120 4 327
1946174N19120 1946 33 WP MM ELINOR 1946-06-25 09:00:00 TS 20.3508 119.597 main 202 199 P________PPP__ WP041946 20.3500 119.598 32 -1 20.3500 119.598 TC 32 20.3531 119.595 2 31 20.3500 119.598 32 999 120 4 328
1946174N19120 1946 33 WP MM ELINOR 1946-06-25 12:00:00 TS 20.5000 119.500 main 199 O________OOO__ jtwc_wp WP041946 20.5000 119.500 30 -1 20.5000 119.500 TC 30 20.5000 119.500 1 30 20.5000 119.500 30 1000 120 4 330

Digital Typhoon Data and Search

About IBTrACS Database

This database is a web-friendly format of International Best Track Archive for Climate Stewardship (IBTrACS), a global best track data archive curated by NOAA dating back to 1842.

Updated: 2021-10-25